메인 페이지
METAR-TAF:

METAR-TAF

공항 :

시애틀 터코마 국제공항

시애틀 / 터코마, 워싱턴, 미국

위도: 47-26-41N, 경도: 122-18-49W, 고도: 130m

현재 날씨관측

예보는 15분 전, 13:53시(UTC)에 발표되었습니다.
3kt
온도 7°C
습도 87%
기압 1013 hPa
시정: 16.1km
고도 8500ft 상공 흐림

METAR: KSEA 061353Z 18003KT 10SM OVC085 07/05 A2992 RMK AO2 SLP140 T00670050

시각: 06:08 (14:08 UTC)

예보

예보는 5분 전, 14:03시(UTC)에 발표되었습니다.
예보 대상 시간: 06일 14시부터 07일 18시까지 (UTC)
여러 방향의 바람 3kt
시정: 10km
고도 8000ft 상공 구름 많음
06일 1800시부터 (UTC)
5kt
시정: 10km
고도 5000ft 상공 구름 많음
고도 8000ft 상공 흐림
07일 0000시부터 (UTC)
남동5kt
시정: 10km
고도 5000ft 상공 흐림
07일 0200시부터 (UTC)
남동6kt
시정: 10km
고도 5000ft 상공 흐림
약한비
07일 0600시부터 (UTC)
5kt
시정: 10km
고도 2000ft 상공 흐림
약한비

TAF: KSEA 061403Z 0614/0718 VRB03KT P6SM BKN080 FM061800 08005KT P6SM BKN050 OVC080 FM070000 13005KT P6SM OVC050 FM070200 13006KT P6SM -RA OVC050 FM070600 10005KT P6SM -RA OVC020

4,000개 이상의 공항 관측 자료 및 예보 (METAR 및 TAF 보고).

지도상에서 검색 가능한 기상관측소가 노란 점과 빨간 점으로 표시되어 있습니다.

기상관측소 명을 보려면 표시 위로 마우스를 이동하세요.

날씨 관측과 예보를 보려면 클릭하세요.

지도 변경 : 확대하려면 엑스 표시가 있는 녹색 버튼, 축소하려면 빼기 표시가 있는 녹색 버튼, 다음 페이지의 지도를 보려면 녹색 화살표를 클릭하세요.


METAR-TAF: